KAL121 ZSJN-ZHHH
Flight info
| Callsign | KAL121 |
|---|---|
| Flight time | 1h 12m |
| Altitude | 40100 |
| Route | EXUVU7Y EXUVU W4 IPNIT W37 PONUD PONUD2T |
| Aircraft | A359/H-SDE2E3GHIJ3J4J5LM1ORWXY/LB1D1 |
Departure
| Time | 2026-04-18 04:25 |
|---|---|
| Airport | Jinan Yaoqiang International Airport (ZSJN) |
Arrival
| Time | 2026-04-18 05:37 |
|---|---|
| Airport | Wuhan Tianhe International Airport (ZHHH) |
| Time | Latitude | Longitude | Altitude | Speed | Heading |
|---|---|---|---|---|---|
| 2026-04-18 03:58 | 36.85568 | 117.21158 | 86 ft | 0 kts | 269° |
| 2026-04-18 04:17 | 36.85570 | 117.21180 | 92 ft | 3 kts | 257° |
| 2026-04-18 04:17 | 36.85572 | 117.21204 | 89 ft | 3 kts | 270° |
| 2026-04-18 04:17 | 36.85571 | 117.21229 | 88 ft | 3 kts | 283° |
| 2026-04-18 04:17 | 36.85565 | 117.21252 | 89 ft | 3 kts | 306° |
| 2026-04-18 04:18 | 36.85552 | 117.21268 | 88 ft | 3 kts | 343° |
| 2026-04-18 04:18 | 36.85536 | 117.21270 | 89 ft | 3 kts | 0° |
| 2026-04-18 04:18 | 36.85516 | 117.21270 | 88 ft | 3 kts | 0° |
| 2026-04-18 04:18 | 36.85508 | 117.21270 | 89 ft | 0 kts | 0° |
| 2026-04-18 04:20 | 36.85511 | 117.21270 | 89 ft | 2 kts | 360° |
| 2026-04-18 04:20 | 36.85551 | 117.21270 | 90 ft | 10 kts | 0° |
| 2026-04-18 04:21 | 36.85644 | 117.21271 | 89 ft | 17 kts | 360° |
| 2026-04-18 04:21 | 36.85739 | 117.21290 | 88 ft | 7 kts | 45° |
| 2026-04-18 04:21 | 36.85789 | 117.21357 | 90 ft | 14 kts | 25° |
| 2026-04-18 04:21 | 36.85905 | 117.21371 | 90 ft | 20 kts | 359° |
| 2026-04-18 04:22 | 36.86062 | 117.21371 | 92 ft | 25 kts | 360° |
| 2026-04-18 04:22 | 36.86250 | 117.21371 | 92 ft | 29 kts | 360° |
| 2026-04-18 04:22 | 36.86466 | 117.21370 | 89 ft | 32 kts | 360° |
| 2026-04-18 04:22 | 36.86696 | 117.21370 | 90 ft | 34 kts | 360° |
| 2026-04-18 04:23 | 36.86916 | 117.21371 | 90 ft | 30 kts | 0° |
| 2026-04-18 04:23 | 36.87136 | 117.21370 | 90 ft | 32 kts | 360° |
| 2026-04-18 04:23 | 36.87256 | 117.21370 | 93 ft | 15 kts | 0° |
| 2026-04-18 04:23 | 36.87330 | 117.21397 | 92 ft | 10 kts | 56° |
| 2026-04-18 04:24 | 36.87340 | 117.21495 | 92 ft | 12 kts | 89° |
| 2026-04-18 04:24 | 36.87311 | 117.21576 | 96 ft | 10 kts | 141° |
| 2026-04-18 04:24 | 36.87236 | 117.21596 | 96 ft | 13 kts | 182° |
| 2026-04-18 04:24 | 36.86948 | 117.21595 | 94 ft | 79 kts | 180° |
| 2026-04-18 04:25 | 36.86156 | 117.21596 | 94 ft | 146 kts | 180° |
| 2026-04-18 04:25 | 36.85027 | 117.21605 | 548 ft | 166 kts | 183° |
| 2026-04-18 04:25 | 36.83857 | 117.21606 | 1320 ft | 173 kts | 182° |
| 2026-04-18 04:25 | 36.82613 | 117.21602 | 2211 ft | 184 kts | 181° |
| 2026-04-18 04:26 | 36.81363 | 117.21268 | 2682 ft | 192 kts | 214° |
| 2026-04-18 04:26 | 36.80600 | 117.19885 | 3100 ft | 208 kts | 255° |
| 2026-04-18 04:26 | 36.80813 | 117.18050 | 3542 ft | 227 kts | 294° |
| 2026-04-18 04:26 | 36.81596 | 117.16269 | 3950 ft | 240 kts | 291° |
| 2026-04-18 04:27 | 36.82172 | 117.14292 | 4509 ft | 245 kts | 281° |
| 2026-04-18 04:27 | 36.82482 | 117.12186 | 5131 ft | 248 kts | 273° |
| 2026-04-18 04:27 | 36.82624 | 117.10028 | 5683 ft | 250 kts | 269° |
| 2026-04-18 04:27 | 36.82672 | 117.07857 | 5931 ft | 250 kts | 266° |
| 2026-04-18 04:28 | 36.82723 | 117.05682 | 5960 ft | 253 kts | 272° |
| 2026-04-18 04:28 | 36.83302 | 117.03586 | 5957 ft | 261 kts | 301° |
| 2026-04-18 04:28 | 36.84647 | 117.02053 | 6100 ft | 270 kts | 326° |
| 2026-04-18 04:28 | 36.86336 | 117.00850 | 6370 ft | 287 kts | 329° |
| 2026-04-18 04:29 | 36.88103 | 116.99637 | 6980 ft | 291 kts | 330° |
| 2026-04-18 04:29 | 36.89881 | 116.98398 | 7655 ft | 294 kts | 329° |
| 2026-04-18 04:29 | 36.91676 | 116.97133 | 8293 ft | 299 kts | 329° |
| 2026-04-18 04:29 | 36.93485 | 116.95854 | 8949 ft | 301 kts | 329° |
| 2026-04-18 04:30 | 36.95318 | 116.94553 | 9575 ft | 306 kts | 329° |
| 2026-04-18 04:30 | 36.97183 | 116.93227 | 10165 ft | 310 kts | 329° |
| 2026-04-18 04:30 | 36.99083 | 116.91876 | 10549 ft | 322 kts | 329° |
| 2026-04-18 04:30 | 37.01073 | 116.90459 | 10850 ft | 336 kts | 329° |
| 2026-04-18 04:31 | 37.03115 | 116.89003 | 11151 ft | 348 kts | 329° |
| 2026-04-18 04:31 | 37.05285 | 116.87459 | 11475 ft | 360 kts | 329° |
| 2026-04-18 04:31 | 37.07459 | 116.85906 | 11767 ft | 369 kts | 329° |
| 2026-04-18 04:31 | 37.09652 | 116.84215 | 12312 ft | 370 kts | 322° |
| 2026-04-18 04:32 | 37.11479 | 116.81968 | 12801 ft | 369 kts | 303° |
| 2026-04-18 04:32 | 37.12674 | 116.79146 | 13339 ft | 365 kts | 287° |
| 2026-04-18 04:32 | 37.13149 | 116.76038 | 13876 ft | 363 kts | 270° |
| 2026-04-18 04:32 | 37.12886 | 116.72893 | 14226 ft | 367 kts | 254° |
| 2026-04-18 04:33 | 37.11874 | 116.69957 | 14573 ft | 371 kts | 238° |
| 2026-04-18 04:33 | 37.10214 | 116.67471 | 14793 ft | 379 kts | 224° |
| 2026-04-18 04:33 | 37.08403 | 116.65007 | 14925 ft | 389 kts | 234° |
| 2026-04-18 04:33 | 37.07080 | 116.62005 | 15156 ft | 396 kts | 245° |
| 2026-04-18 04:34 | 37.05978 | 116.58811 | 15424 ft | 402 kts | 247° |
| 2026-04-18 04:34 | 37.04884 | 116.55574 | 15672 ft | 407 kts | 247° |
| 2026-04-18 04:34 | 37.03775 | 116.52311 | 16054 ft | 409 kts | 247° |
| 2026-04-18 04:34 | 37.02652 | 116.49019 | 16334 ft | 414 kts | 247° |
| 2026-04-18 04:35 | 37.01517 | 116.45701 | 16714 ft | 415 kts | 247° |
| 2026-04-18 04:35 | 37.00378 | 116.42372 | 17072 ft | 418 kts | 247° |
| 2026-04-18 04:35 | 36.99236 | 116.39043 | 17455 ft | 419 kts | 247° |
| 2026-04-18 04:35 | 36.98078 | 116.35666 | 17773 ft | 423 kts | 247° |
| 2026-04-18 04:36 | 36.96908 | 116.32263 | 18077 ft | 427 kts | 247° |
| 2026-04-18 04:36 | 36.95737 | 116.28858 | 18339 ft | 431 kts | 247° |
| 2026-04-18 04:36 | 36.94567 | 116.25464 | 18637 ft | 432 kts | 247° |
| 2026-04-18 04:36 | 36.93362 | 116.21968 | 19069 ft | 431 kts | 247° |
| 2026-04-18 04:37 | 36.92191 | 116.18577 | 19411 ft | 432 kts | 247° |
| 2026-04-18 04:37 | 36.90977 | 116.15067 | 19710 ft | 434 kts | 247° |
| 2026-04-18 04:37 | 36.89780 | 116.11609 | 20001 ft | 436 kts | 247° |
| 2026-04-18 04:37 | 36.88567 | 116.08105 | 20281 ft | 439 kts | 247° |
| 2026-04-18 04:38 | 36.87371 | 116.04660 | 20604 ft | 440 kts | 247° |
| 2026-04-18 04:38 | 36.86136 | 116.01104 | 20911 ft | 441 kts | 247° |
| 2026-04-18 04:38 | 36.85315 | 115.98743 | 21146 ft | 442 kts | 246° |
| 2026-04-18 04:38 | 36.83679 | 115.94041 | 21505 ft | 446 kts | 246° |
| 2026-04-18 04:39 | 36.82461 | 115.90544 | 21784 ft | 448 kts | 246° |
| 2026-04-18 04:39 | 36.81607 | 115.88099 | 21956 ft | 449 kts | 246° |
| 2026-04-18 04:39 | 36.79952 | 115.83360 | 22384 ft | 451 kts | 246° |
| 2026-04-18 04:39 | 36.79105 | 115.80937 | 22554 ft | 452 kts | 246° |
| 2026-04-18 04:40 | 36.77846 | 115.77339 | 22893 ft | 453 kts | 246° |
| 2026-04-18 04:40 | 36.76181 | 115.72584 | 23214 ft | 456 kts | 246° |
| 2026-04-18 04:40 | 36.74894 | 115.68922 | 23504 ft | 458 kts | 246° |
| 2026-04-18 04:40 | 36.74028 | 115.66463 | 23658 ft | 460 kts | 246° |
| 2026-04-18 04:41 | 36.72741 | 115.62810 | 23958 ft | 460 kts | 246° |
| 2026-04-18 04:41 | 36.71452 | 115.59157 | 24314 ft | 458 kts | 246° |
| 2026-04-18 04:41 | 36.70177 | 115.55545 | 24563 ft | 460 kts | 246° |
| 2026-04-18 04:41 | 36.68871 | 115.51851 | 24704 ft | 464 kts | 246° |
| 2026-04-18 04:42 | 36.67561 | 115.48150 | 24936 ft | 467 kts | 246° |
| 2026-04-18 04:42 | 36.66253 | 115.44458 | 25276 ft | 466 kts | 246° |
| 2026-04-18 04:42 | 36.64940 | 115.40756 | 25592 ft | 466 kts | 246° |
| 2026-04-18 04:42 | 36.63630 | 115.37069 | 25881 ft | 467 kts | 246° |
| 2026-04-18 04:43 | 36.62312 | 115.33361 | 26120 ft | 469 kts | 246° |
| 2026-04-18 04:43 | 36.60992 | 115.29644 | 26349 ft | 472 kts | 246° |
| 2026-04-18 04:43 | 36.59662 | 115.25903 | 26664 ft | 472 kts | 246° |
| 2026-04-18 04:43 | 36.58315 | 115.22181 | 27012 ft | 473 kts | 245° |
| 2026-04-18 04:44 | 36.56675 | 115.18632 | 27403 ft | 473 kts | 237° |
| 2026-04-18 04:44 | 36.54597 | 115.15408 | 27519 ft | 481 kts | 227° |
| 2026-04-18 04:44 | 36.52062 | 115.12710 | 27843 ft | 484 kts | 217° |
| 2026-04-18 04:44 | 36.49162 | 115.10552 | 28136 ft | 487 kts | 210° |
| 2026-04-18 04:45 | 36.46120 | 115.08633 | 28333 ft | 491 kts | 207° |
| 2026-04-18 04:45 | 36.43053 | 115.06859 | 28628 ft | 493 kts | 206° |
| 2026-04-18 04:45 | 36.39918 | 115.05111 | 28921 ft | 495 kts | 205° |
| 2026-04-18 04:45 | 36.36644 | 115.03580 | 29230 ft | 498 kts | 198° |
| 2026-04-18 04:46 | 36.33322 | 115.02641 | 29636 ft | 499 kts | 190° |
| 2026-04-18 04:46 | 36.29868 | 115.02128 | 30108 ft | 498 kts | 187° |
| 2026-04-18 04:46 | 36.26445 | 115.01738 | 30495 ft | 498 kts | 187° |
| 2026-04-18 04:46 | 36.22959 | 115.01393 | 30890 ft | 498 kts | 187° |
| 2026-04-18 04:47 | 36.19501 | 115.01068 | 31325 ft | 497 kts | 186° |
| 2026-04-18 04:47 | 36.16070 | 115.00746 | 31772 ft | 496 kts | 187° |
| 2026-04-18 04:47 | 36.12631 | 115.00414 | 32155 ft | 496 kts | 186° |
| 2026-04-18 04:47 | 36.09175 | 115.00072 | 32649 ft | 494 kts | 186° |
| 2026-04-18 04:48 | 36.05761 | 114.99728 | 33074 ft | 493 kts | 187° |
| 2026-04-18 04:48 | 36.02334 | 114.99380 | 33435 ft | 494 kts | 186° |
| 2026-04-18 04:48 | 35.98924 | 114.99033 | 33881 ft | 492 kts | 187° |
| 2026-04-18 04:48 | 35.95498 | 114.98683 | 34058 ft | 493 kts | 187° |
| 2026-04-18 04:49 | 35.92092 | 114.98335 | 34079 ft | 492 kts | 187° |
| 2026-04-18 04:49 | 35.85262 | 114.97640 | 34080 ft | 492 kts | 186° |
| 2026-04-18 04:50 | 35.78432 | 114.96948 | 34077 ft | 492 kts | 186° |
| 2026-04-18 04:50 | 35.71611 | 114.96257 | 34078 ft | 492 kts | 187° |
| 2026-04-18 04:51 | 35.64791 | 114.95567 | 34082 ft | 492 kts | 187° |
| 2026-04-18 04:51 | 35.57966 | 114.94879 | 34080 ft | 492 kts | 187° |
| 2026-04-18 04:52 | 35.51145 | 114.94193 | 34087 ft | 491 kts | 186° |
| 2026-04-18 04:52 | 35.44342 | 114.93509 | 34091 ft | 491 kts | 186° |
| 2026-04-18 04:53 | 35.37507 | 114.92824 | 34086 ft | 491 kts | 187° |
| 2026-04-18 04:53 | 35.30711 | 114.92144 | 34092 ft | 491 kts | 186° |
| 2026-04-18 04:54 | 35.23875 | 114.91466 | 34086 ft | 491 kts | 186° |
| 2026-04-18 04:54 | 35.17044 | 114.90782 | 34098 ft | 497 kts | 186° |
| 2026-04-18 04:55 | 35.10082 | 114.90082 | 34099 ft | 508 kts | 186° |
| 2026-04-18 04:55 | 35.03008 | 114.89377 | 34090 ft | 508 kts | 186° |
| 2026-04-18 04:56 | 34.92471 | 114.88334 | 34099 ft | 508 kts | 186° |
| 2026-04-18 04:56 | 34.85442 | 114.87639 | 34100 ft | 508 kts | 186° |
| 2026-04-18 04:57 | 34.78405 | 114.86943 | 34097 ft | 508 kts | 186° |
| 2026-04-18 04:57 | 34.71371 | 114.86249 | 34105 ft | 508 kts | 186° |
| 2026-04-18 04:58 | 34.64332 | 114.85555 | 34105 ft | 508 kts | 186° |
| 2026-04-18 04:58 | 34.57268 | 114.84861 | 34097 ft | 508 kts | 186° |
| 2026-04-18 04:59 | 34.50250 | 114.84172 | 34105 ft | 508 kts | 186° |
| 2026-04-18 04:59 | 34.43193 | 114.83480 | 34108 ft | 508 kts | 186° |
| 2026-04-18 05:00 | 34.36160 | 114.82790 | 34110 ft | 508 kts | 186° |
| 2026-04-18 05:00 | 34.29102 | 114.82100 | 34109 ft | 508 kts | 187° |
| 2026-04-18 05:01 | 34.22115 | 114.81420 | 34112 ft | 508 kts | 187° |
| 2026-04-18 05:01 | 34.15083 | 114.80735 | 34109 ft | 508 kts | 187° |
| 2026-04-18 05:02 | 34.08044 | 114.80056 | 34104 ft | 508 kts | 187° |
| 2026-04-18 05:02 | 34.00951 | 114.79376 | 34107 ft | 508 kts | 187° |
| 2026-04-18 05:03 | 33.93931 | 114.78704 | 34106 ft | 508 kts | 187° |
| 2026-04-18 05:03 | 33.86917 | 114.78032 | 34107 ft | 508 kts | 187° |
| 2026-04-18 05:04 | 33.79836 | 114.77355 | 34112 ft | 508 kts | 187° |
| 2026-04-18 05:04 | 33.72798 | 114.76646 | 34107 ft | 508 kts | 187° |
| 2026-04-18 05:05 | 33.65708 | 114.75953 | 34101 ft | 508 kts | 187° |
| 2026-04-18 05:05 | 33.58655 | 114.75303 | 34112 ft | 509 kts | 187° |
| 2026-04-18 05:06 | 33.51590 | 114.74611 | 34103 ft | 509 kts | 188° |
| 2026-04-18 05:06 | 33.44549 | 114.73877 | 34103 ft | 509 kts | 187° |
| 2026-04-18 05:07 | 33.37491 | 114.73182 | 34107 ft | 509 kts | 188° |
| 2026-04-18 05:07 | 33.30421 | 114.72499 | 34099 ft | 509 kts | 188° |
| 2026-04-18 05:08 | 33.23354 | 114.71820 | 34097 ft | 510 kts | 188° |
| 2026-04-18 05:08 | 33.16278 | 114.71144 | 34087 ft | 510 kts | 188° |
| 2026-04-18 05:09 | 33.09212 | 114.70444 | 34098 ft | 509 kts | 188° |
| 2026-04-18 05:09 | 33.02264 | 114.69755 | 33529 ft | 495 kts | 188° |
| 2026-04-18 05:10 | 32.98843 | 114.69417 | 32903 ft | 494 kts | 188° |
| 2026-04-18 05:10 | 32.95462 | 114.69082 | 32282 ft | 494 kts | 187° |
| 2026-04-18 05:10 | 32.92027 | 114.68742 | 31664 ft | 497 kts | 188° |
| 2026-04-18 05:10 | 32.88578 | 114.68402 | 31064 ft | 500 kts | 187° |
| 2026-04-18 05:11 | 32.85054 | 114.68055 | 30466 ft | 502 kts | 187° |
| 2026-04-18 05:11 | 32.81619 | 114.67726 | 29880 ft | 503 kts | 187° |
| 2026-04-18 05:11 | 32.78082 | 114.67395 | 29197 ft | 502 kts | 187° |
| 2026-04-18 05:11 | 32.74681 | 114.67080 | 28558 ft | 497 kts | 187° |
| 2026-04-18 05:12 | 32.71223 | 114.66759 | 27901 ft | 493 kts | 187° |
| 2026-04-18 05:12 | 32.67823 | 114.66444 | 27275 ft | 488 kts | 187° |
| 2026-04-18 05:12 | 32.64449 | 114.66128 | 26659 ft | 483 kts | 187° |
| 2026-04-18 05:12 | 32.61118 | 114.65816 | 26061 ft | 479 kts | 187° |
| 2026-04-18 05:13 | 32.57811 | 114.65504 | 25470 ft | 475 kts | 187° |
| 2026-04-18 05:13 | 32.54524 | 114.65195 | 24903 ft | 471 kts | 187° |
| 2026-04-18 05:13 | 32.51265 | 114.64888 | 24327 ft | 467 kts | 187° |
| 2026-04-18 05:13 | 32.48039 | 114.64585 | 23894 ft | 463 kts | 187° |
| 2026-04-18 05:14 | 32.44832 | 114.64284 | 23482 ft | 462 kts | 187° |
| 2026-04-18 05:14 | 32.41628 | 114.63983 | 22940 ft | 459 kts | 187° |
| 2026-04-18 05:14 | 32.38461 | 114.63686 | 22406 ft | 456 kts | 187° |
| 2026-04-18 05:14 | 32.35310 | 114.63390 | 21885 ft | 452 kts | 187° |
| 2026-04-18 05:15 | 32.32183 | 114.63082 | 21371 ft | 449 kts | 187° |
| 2026-04-18 05:15 | 32.29083 | 114.62776 | 20862 ft | 446 kts | 187° |
| 2026-04-18 05:15 | 32.26002 | 114.62473 | 20487 ft | 443 kts | 187° |
| 2026-04-18 05:15 | 32.22929 | 114.62172 | 20233 ft | 441 kts | 187° |
| 2026-04-18 05:16 | 32.19875 | 114.61875 | 19980 ft | 440 kts | 187° |
| 2026-04-18 05:16 | 32.16859 | 114.61581 | 19738 ft | 439 kts | 187° |
| 2026-04-18 05:16 | 32.13800 | 114.61283 | 19488 ft | 437 kts | 187° |
| 2026-04-18 05:16 | 32.10773 | 114.60989 | 19258 ft | 436 kts | 187° |
| 2026-04-18 05:17 | 32.07742 | 114.60695 | 19020 ft | 435 kts | 187° |
| 2026-04-18 05:17 | 32.04743 | 114.60404 | 18790 ft | 433 kts | 187° |
| 2026-04-18 05:17 | 32.01742 | 114.60114 | 18556 ft | 432 kts | 187° |
| 2026-04-18 05:17 | 31.98789 | 114.59829 | 18330 ft | 431 kts | 186° |
| 2026-04-18 05:18 | 31.95801 | 114.59540 | 18070 ft | 429 kts | 186° |
| 2026-04-18 05:18 | 31.92862 | 114.59257 | 17771 ft | 418 kts | 186° |
| 2026-04-18 05:18 | 31.90022 | 114.58984 | 17385 ft | 407 kts | 186° |
| 2026-04-18 05:18 | 31.87239 | 114.58716 | 16994 ft | 397 kts | 186° |
| 2026-04-18 05:19 | 31.84512 | 114.58453 | 16611 ft | 388 kts | 186° |
| 2026-04-18 05:19 | 31.81857 | 114.58197 | 16237 ft | 379 kts | 186° |
| 2026-04-18 05:19 | 31.79251 | 114.57945 | 15851 ft | 371 kts | 186° |
| 2026-04-18 05:19 | 31.76689 | 114.57699 | 15488 ft | 364 kts | 186° |
| 2026-04-18 05:20 | 31.74209 | 114.57461 | 15123 ft | 356 kts | 186° |
| 2026-04-18 05:20 | 31.71750 | 114.57223 | 14753 ft | 349 kts | 186° |
| 2026-04-18 05:20 | 31.69372 | 114.56994 | 14403 ft | 343 kts | 186° |
| 2026-04-18 05:20 | 31.66996 | 114.56765 | 14044 ft | 337 kts | 186° |
| 2026-04-18 05:21 | 31.64674 | 114.56543 | 13672 ft | 331 kts | 186° |
| 2026-04-18 05:21 | 31.62401 | 114.56330 | 13280 ft | 326 kts | 186° |
| 2026-04-18 05:21 | 31.60157 | 114.56115 | 12898 ft | 321 kts | 186° |
| 2026-04-18 05:21 | 31.57951 | 114.55901 | 12421 ft | 319 kts | 186° |
| 2026-04-18 05:22 | 31.55779 | 114.55691 | 11929 ft | 318 kts | 186° |
| 2026-04-18 05:22 | 31.53551 | 114.55477 | 11421 ft | 316 kts | 186° |
| 2026-04-18 05:22 | 31.51369 | 114.55269 | 10949 ft | 315 kts | 186° |
| 2026-04-18 05:22 | 31.49178 | 114.55059 | 10459 ft | 314 kts | 186° |
| 2026-04-18 05:23 | 31.47010 | 114.54852 | 9994 ft | 313 kts | 186° |
| 2026-04-18 05:23 | 31.44837 | 114.54643 | 9469 ft | 311 kts | 186° |
| 2026-04-18 05:23 | 31.42682 | 114.54437 | 8958 ft | 309 kts | 186° |
| 2026-04-18 05:23 | 31.41271 | 114.54302 | 8631 ft | 308 kts | 186° |
| 2026-04-18 05:24 | 31.39143 | 114.54099 | 8130 ft | 305 kts | 185° |
| 2026-04-18 05:24 | 31.36331 | 114.53835 | 7577 ft | 299 kts | 186° |
| 2026-04-18 05:24 | 31.34317 | 114.53643 | 7518 ft | 282 kts | 185° |
| 2026-04-18 05:24 | 31.32411 | 114.53461 | 7381 ft | 269 kts | 186° |
| 2026-04-18 05:25 | 31.30585 | 114.53286 | 7264 ft | 258 kts | 186° |
| 2026-04-18 05:25 | 31.28830 | 114.53118 | 7133 ft | 249 kts | 186° |
| 2026-04-18 05:25 | 31.27117 | 114.52954 | 7007 ft | 247 kts | 186° |
| 2026-04-18 05:25 | 31.25984 | 114.52845 | 6931 ft | 246 kts | 186° |
| 2026-04-18 05:26 | 31.23718 | 114.52754 | 6769 ft | 247 kts | 179° |
| 2026-04-18 05:26 | 31.22557 | 114.52823 | 6685 ft | 247 kts | 177° |
| 2026-04-18 05:26 | 31.20846 | 114.52953 | 6566 ft | 247 kts | 178° |
| 2026-04-18 05:26 | 31.19133 | 114.53088 | 6388 ft | 246 kts | 177° |
| 2026-04-18 05:27 | 31.17435 | 114.53220 | 6078 ft | 243 kts | 177° |
| 2026-04-18 05:27 | 31.15755 | 114.53347 | 5761 ft | 241 kts | 178° |
| 2026-04-18 05:27 | 31.14087 | 114.53474 | 5430 ft | 240 kts | 177° |
| 2026-04-18 05:27 | 31.12429 | 114.53601 | 5114 ft | 238 kts | 176° |
| 2026-04-18 05:28 | 31.10781 | 114.53726 | 4798 ft | 236 kts | 176° |
| 2026-04-18 05:28 | 31.09147 | 114.53832 | 4475 ft | 234 kts | 180° |
| 2026-04-18 05:28 | 31.07561 | 114.53507 | 4147 ft | 231 kts | 204° |
| 2026-04-18 05:28 | 31.06236 | 114.52475 | 3823 ft | 229 kts | 220° |
| 2026-04-18 05:29 | 31.05061 | 114.51260 | 3497 ft | 228 kts | 221° |
| 2026-04-18 05:29 | 31.03897 | 114.50027 | 3193 ft | 226 kts | 220° |
| 2026-04-18 05:29 | 31.02735 | 114.48813 | 3022 ft | 220 kts | 220° |
| 2026-04-18 05:29 | 31.01601 | 114.47632 | 2995 ft | 218 kts | 220° |
| 2026-04-18 05:30 | 31.00467 | 114.46461 | 3002 ft | 218 kts | 220° |
| 2026-04-18 05:30 | 30.99332 | 114.45292 | 2996 ft | 217 kts | 220° |
| 2026-04-18 05:30 | 30.98236 | 114.44166 | 3002 ft | 202 kts | 220° |
| 2026-04-18 05:30 | 30.97224 | 114.43120 | 3015 ft | 188 kts | 221° |
| 2026-04-18 05:31 | 30.96250 | 114.42115 | 3000 ft | 187 kts | 220° |
| 2026-04-18 05:31 | 30.95273 | 114.41110 | 3000 ft | 187 kts | 220° |
| 2026-04-18 05:31 | 30.94296 | 114.40107 | 3001 ft | 187 kts | 221° |
| 2026-04-18 05:31 | 30.93321 | 114.39105 | 3000 ft | 187 kts | 220° |
| 2026-04-18 05:32 | 30.92343 | 114.38103 | 2993 ft | 187 kts | 220° |
| 2026-04-18 05:32 | 30.91371 | 114.37105 | 2992 ft | 186 kts | 220° |
| 2026-04-18 05:32 | 30.90401 | 114.36111 | 2979 ft | 186 kts | 220° |
| 2026-04-18 05:32 | 30.89429 | 114.35115 | 2852 ft | 186 kts | 220° |
| 2026-04-18 05:33 | 30.88457 | 114.34118 | 2705 ft | 186 kts | 220° |
| 2026-04-18 05:33 | 30.87492 | 114.33123 | 2497 ft | 185 kts | 220° |
| 2026-04-18 05:33 | 30.86533 | 114.32136 | 2275 ft | 178 kts | 220° |
| 2026-04-18 05:33 | 30.85648 | 114.31222 | 2047 ft | 166 kts | 219° |
| 2026-04-18 05:34 | 30.84837 | 114.30387 | 1953 ft | 145 kts | 219° |
| 2026-04-18 05:34 | 30.84103 | 114.29632 | 1731 ft | 140 kts | 218° |
| 2026-04-18 05:34 | 30.83362 | 114.28875 | 1427 ft | 138 kts | 219° |
| 2026-04-18 05:34 | 30.82669 | 114.28160 | 1264 ft | 130 kts | 218° |
| 2026-04-18 05:35 | 30.82006 | 114.27480 | 1123 ft | 126 kts | 220° |
| 2026-04-18 05:35 | 30.81344 | 114.26799 | 941 ft | 128 kts | 220° |
| 2026-04-18 05:35 | 30.80673 | 114.26115 | 829 ft | 131 kts | 221° |
| 2026-04-18 05:35 | 30.79992 | 114.25413 | 656 ft | 131 kts | 221° |
| 2026-04-18 05:36 | 30.79291 | 114.24696 | 460 ft | 132 kts | 221° |
| 2026-04-18 05:36 | 30.78602 | 114.23983 | 274 ft | 133 kts | 223° |
| 2026-04-18 05:36 | 30.77911 | 114.23272 | 113 ft | 131 kts | 223° |
| 2026-04-18 05:36 | 30.77312 | 114.22652 | 110 ft | 99 kts | 221° |
| 2026-04-18 05:37 | 30.76945 | 114.22287 | 111 ft | 56 kts | 220° |
| 2026-04-18 05:37 | 30.76666 | 114.22000 | 113 ft | 51 kts | 221° |
| 2026-04-18 05:37 | 30.76436 | 114.21766 | 110 ft | 19 kts | 220° |
| 2026-04-18 05:37 | 30.76344 | 114.21673 | 109 ft | 18 kts | 221° |
| 2026-04-18 05:38 | 30.76245 | 114.21574 | 110 ft | 20 kts | 220° |
| 2026-04-18 05:38 | 30.76141 | 114.21465 | 110 ft | 20 kts | 222° |
| 2026-04-18 05:38 | 30.76034 | 114.21353 | 111 ft | 22 kts | 222° |
| 2026-04-18 05:38 | 30.75946 | 114.21229 | 111 ft | 14 kts | 269° |
| 2026-04-18 05:39 | 30.75990 | 114.21151 | 113 ft | 13 kts | 307° |
| 2026-04-18 05:39 | 30.76071 | 114.21130 | 110 ft | 14 kts | 33° |
| 2026-04-18 05:39 | 30.76157 | 114.21215 | 113 ft | 18 kts | 40° |
| 2026-04-18 05:39 | 30.76262 | 114.21322 | 110 ft | 22 kts | 41° |
| 2026-04-18 05:40 | 30.76387 | 114.21449 | 113 ft | 26 kts | 41° |
| 2026-04-18 05:40 | 30.76531 | 114.21594 | 112 ft | 29 kts | 41° |
| 2026-04-18 05:40 | 30.76687 | 114.21757 | 111 ft | 31 kts | 42° |
| 2026-04-18 05:40 | 30.76855 | 114.21928 | 113 ft | 33 kts | 41° |
| 2026-04-18 05:41 | 30.77034 | 114.22108 | 112 ft | 35 kts | 41° |
| 2026-04-18 05:41 | 30.77184 | 114.22260 | 111 ft | 37 kts | 43° |
| 2026-04-18 05:41 | 30.77234 | 114.22313 | 112 ft | 1 kts | 42° |
| 2026-04-18 05:41 | 30.77258 | 114.22338 | 112 ft | 8 kts | 42° |
| 2026-04-18 05:42 | 30.77315 | 114.22334 | 110 ft | 11 kts | 312° |
| 2026-04-18 05:42 | 30.77298 | 114.22248 | 111 ft | 14 kts | 225° |
| 2026-04-18 05:42 | 30.77259 | 114.22149 | 110 ft | 15 kts | 290° |
| 2026-04-18 05:42 | 30.77335 | 114.22039 | 111 ft | 20 kts | 311° |
| 2026-04-18 05:43 | 30.77429 | 114.21914 | 112 ft | 21 kts | 311° |
| 2026-04-18 05:43 | 30.77530 | 114.21782 | 113 ft | 23 kts | 311° |
| 2026-04-18 05:43 | 30.77560 | 114.21742 | 112 ft | 3 kts | 311° |
| 2026-04-18 05:43 | 30.77589 | 114.21700 | 112 ft | 9 kts | 296° |
| 2026-04-18 05:44 | 30.77573 | 114.21653 | 110 ft | 7 kts | 232° |
| 2026-04-18 05:44 | 30.77538 | 114.21618 | 111 ft | 4 kts | 221° |
| 2026-04-18 05:44 | 30.77530 | 114.21610 | 111 ft | 0 kts | 221° |